sensor_id;sensor_type;location;lat;lon;timestamp;P1;durP1;ratioP1;P2;durP2;ratioP2
22737;SDS011;11536;50.860;4.286;2024-03-06T00:02:20;7.18;;;3.47;;
22737;SDS011;11536;50.860;4.286;2024-03-06T00:04:46;7.53;;;4.15;;
22737;SDS011;11536;50.860;4.286;2024-03-06T00:07:11;10.00;;;3.60;;
22737;SDS011;11536;50.860;4.286;2024-03-06T00:09:37;7.40;;;3.53;;
22737;SDS011;11536;50.860;4.286;2024-03-06T00:12:02;8.95;;;4.05;;
22737;SDS011;11536;50.860;4.286;2024-03-06T00:14:29;9.75;;;3.80;;
22737;SDS011;11536;50.860;4.286;2024-03-06T00:16:54;9.45;;;4.10;;
22737;SDS011;11536;50.860;4.286;2024-03-06T00:19:23;9.10;;;4.07;;
22737;SDS011;11536;50.860;4.286;2024-03-06T00:21:48;6.38;;;3.50;;
22737;SDS011;11536;50.860;4.286;2024-03-06T00:24:15;8.73;;;4.03;;
22737;SDS011;11536;50.860;4.286;2024-03-06T00:26:41;6.85;;;3.70;;
22737;SDS011;11536;50.860;4.286;2024-03-06T00:29:08;7.85;;;3.53;;
22737;SDS011;11536;50.860;4.286;2024-03-06T00:31:36;6.93;;;3.72;;
22737;SDS011;11536;50.860;4.286;2024-03-06T00:34:01;7.13;;;3.47;;
22737;SDS011;11536;50.860;4.286;2024-03-06T00:36:27;7.97;;;3.75;;
22737;SDS011;11536;50.860;4.286;2024-03-06T00:38:53;7.60;;;3.55;;
22737;SDS011;11536;50.860;4.286;2024-03-06T00:41:18;9.98;;;4.35;;
22737;SDS011;11536;50.860;4.286;2024-03-06T00:43:44;6.10;;;3.30;;
22737;SDS011;11536;50.860;4.286;2024-03-06T00:46:10;8.82;;;3.83;;
22737;SDS011;11536;50.860;4.286;2024-03-06T00:48:36;7.65;;;3.97;;
22737;SDS011;11536;50.860;4.286;2024-03-06T00:51:04;7.88;;;4.30;;
22737;SDS011;11536;50.860;4.286;2024-03-06T00:53:30;7.80;;;3.58;;
22737;SDS011;11536;50.860;4.286;2024-03-06T00:55:55;8.98;;;4.03;;
22737;SDS011;11536;50.860;4.286;2024-03-06T00:58:21;7.88;;;3.50;;
22737;SDS011;11536;50.860;4.286;2024-03-06T01:00:46;10.23;;;4.18;;
22737;SDS011;11536;50.860;4.286;2024-03-06T01:03:12;8.10;;;4.03;;
22737;SDS011;11536;50.860;4.286;2024-03-06T01:05:38;8.35;;;3.90;;
22737;SDS011;11536;50.860;4.286;2024-03-06T01:08:03;6.70;;;3.45;;
22737;SDS011;11536;50.860;4.286;2024-03-06T01:10:29;8.05;;;3.67;;
22737;SDS011;11536;50.860;4.286;2024-03-06T01:12:55;6.53;;;3.53;;
22737;SDS011;11536;50.860;4.286;2024-03-06T01:15:20;10.10;;;4.07;;
22737;SDS011;11536;50.860;4.286;2024-03-06T01:17:46;8.30;;;3.95;;
22737;SDS011;11536;50.860;4.286;2024-03-06T01:20:12;9.27;;;3.80;;
22737;SDS011;11536;50.860;4.286;2024-03-06T01:22:38;9.20;;;4.18;;
22737;SDS011;11536;50.860;4.286;2024-03-06T01:25:03;11.80;;;4.20;;
22737;SDS011;11536;50.860;4.286;2024-03-06T01:27:29;8.63;;;4.20;;
22737;SDS011;11536;50.860;4.286;2024-03-06T01:29:55;8.93;;;4.07;;
22737;SDS011;11536;50.860;4.286;2024-03-06T01:32:21;9.77;;;3.90;;
22737;SDS011;11536;50.860;4.286;2024-03-06T01:34:46;8.60;;;3.75;;
22737;SDS011;11536;50.860;4.286;2024-03-06T01:37:12;8.40;;;3.55;;
22737;SDS011;11536;50.860;4.286;2024-03-06T01:39:37;6.40;;;3.17;;
22737;SDS011;11536;50.860;4.286;2024-03-06T01:42:03;8.55;;;3.50;;
22737;SDS011;11536;50.860;4.286;2024-03-06T01:44:29;10.40;;;3.70;;
22737;SDS011;11536;50.860;4.286;2024-03-06T01:46:54;6.72;;;3.55;;
22737;SDS011;11536;50.860;4.286;2024-03-06T01:49:20;8.48;;;3.38;;
22737;SDS011;11536;50.860;4.286;2024-03-06T01:51:53;8.30;;;3.38;;
22737;SDS011;11536;50.860;4.286;2024-03-06T01:56:47;9.93;;;3.40;;
22737;SDS011;11536;50.860;4.286;2024-03-06T01:59:15;7.07;;;3.65;;
22737;SDS011;11536;50.860;4.286;2024-03-06T02:01:43;9.32;;;3.70;;
22737;SDS011;11536;50.860;4.286;2024-03-06T02:04:11;8.00;;;3.30;;
22737;SDS011;11536;50.860;4.286;2024-03-06T02:06:41;10.35;;;3.60;;
22737;SDS011;11536;50.860;4.286;2024-03-06T02:09:07;9.27;;;3.58;;
22737;SDS011;11536;50.860;4.286;2024-03-06T02:11:34;6.97;;;3.30;;
22737;SDS011;11536;50.860;4.286;2024-03-06T02:14:00;7.20;;;3.10;;
22737;SDS011;11536;50.860;4.286;2024-03-06T02:16:26;6.55;;;3.10;;
22737;SDS011;11536;50.860;4.286;2024-03-06T02:18:52;6.60;;;3.30;;
22737;SDS011;11536;50.860;4.286;2024-03-06T02:21:19;7.30;;;3.22;;
22737;SDS011;11536;50.860;4.286;2024-03-06T02:23:48;11.15;;;3.63;;
22737;SDS011;11536;50.860;4.286;2024-03-06T02:26:16;8.70;;;3.45;;
22737;SDS011;11536;50.860;4.286;2024-03-06T02:28:48;7.13;;;3.50;;
22737;SDS011;11536;50.860;4.286;2024-03-06T02:31:15;6.32;;;3.40;;
22737;SDS011;11536;50.860;4.286;2024-03-06T02:33:45;8.57;;;3.92;;
22737;SDS011;11536;50.860;4.286;2024-03-06T02:36:15;7.53;;;3.20;;
22737;SDS011;11536;50.860;4.286;2024-03-06T02:38:44;7.47;;;3.78;;
22737;SDS011;11536;50.860;4.286;2024-03-06T02:41:11;6.25;;;3.10;;
22737;SDS011;11536;50.860;4.286;2024-03-06T02:43:38;7.43;;;3.15;;
22737;SDS011;11536;50.860;4.286;2024-03-06T02:46:04;7.88;;;3.72;;
22737;SDS011;11536;50.860;4.286;2024-03-06T02:48:30;7.68;;;3.30;;
22737;SDS011;11536;50.860;4.286;2024-03-06T02:50:56;6.80;;;2.88;;
22737;SDS011;11536;50.860;4.286;2024-03-06T02:53:21;9.60;;;3.35;;
22737;SDS011;11536;50.860;4.286;2024-03-06T02:55:47;8.10;;;3.40;;
22737;SDS011;11536;50.860;4.286;2024-03-06T02:58:13;7.57;;;3.17;;
22737;SDS011;11536;50.860;4.286;2024-03-06T03:00:41;7.57;;;3.60;;
22737;SDS011;11536;50.860;4.286;2024-03-06T03:03:07;8.50;;;3.45;;
22737;SDS011;11536;50.860;4.286;2024-03-06T03:05:33;9.05;;;3.75;;
22737;SDS011;11536;50.860;4.286;2024-03-06T03:07:58;7.35;;;3.35;;
22737;SDS011;11536;50.860;4.286;2024-03-06T03:10:24;7.43;;;3.47;;
22737;SDS011;11536;50.860;4.286;2024-03-06T03:12:50;8.27;;;3.50;;
22737;SDS011;11536;50.860;4.286;2024-03-06T03:15:16;6.45;;;3.45;;
22737;SDS011;11536;50.860;4.286;2024-03-06T03:17:42;8.50;;;3.92;;
22737;SDS011;11536;50.860;4.286;2024-03-06T03:20:07;6.40;;;3.45;;
22737;SDS011;11536;50.860;4.286;2024-03-06T03:22:39;7.53;;;3.83;;
22737;SDS011;11536;50.860;4.286;2024-03-06T03:25:11;9.25;;;3.85;;
22737;SDS011;11536;50.860;4.286;2024-03-06T03:27:40;11.30;;;4.13;;
22737;SDS011;11536;50.860;4.286;2024-03-06T03:30:07;7.35;;;3.45;;
22737;SDS011;11536;50.860;4.286;2024-03-06T03:32:33;6.75;;;3.33;;
22737;SDS011;11536;50.860;4.286;2024-03-06T03:34:59;8.55;;;3.72;;
22737;SDS011;11536;50.860;4.286;2024-03-06T03:37:25;8.55;;;3.58;;
22737;SDS011;11536;50.860;4.286;2024-03-06T03:39:50;7.60;;;3.90;;
22737;SDS011;11536;50.860;4.286;2024-03-06T03:42:16;8.75;;;3.78;;
22737;SDS011;11536;50.860;4.286;2024-03-06T03:44:41;8.45;;;3.85;;
22737;SDS011;11536;50.860;4.286;2024-03-06T03:47:07;8.57;;;3.85;;
22737;SDS011;11536;50.860;4.286;2024-03-06T03:49:33;6.47;;;3.60;;
22737;SDS011;11536;50.860;4.286;2024-03-06T03:51:59;8.32;;;4.43;;
22737;SDS011;11536;50.860;4.286;2024-03-06T03:54:24;8.07;;;4.03;;
22737;SDS011;11536;50.860;4.286;2024-03-06T03:56:50;7.97;;;3.72;;
22737;SDS011;11536;50.860;4.286;2024-03-06T03:59:15;7.82;;;3.70;;
22737;SDS011;11536;50.860;4.286;2024-03-06T04:01:42;7.85;;;4.10;;
22737;SDS011;11536;50.860;4.286;2024-03-06T04:04:10;9.98;;;4.07;;
22737;SDS011;11536;50.860;4.286;2024-03-06T04:06:36;8.52;;;4.20;;
22737;SDS011;11536;50.860;4.286;2024-03-06T04:09:01;8.27;;;4.22;;
22737;SDS011;11536;50.860;4.286;2024-03-06T04:11:27;9.23;;;3.97;;
22737;SDS011;11536;50.860;4.286;2024-03-06T04:13:53;10.10;;;4.03;;
22737;SDS011;11536;50.860;4.286;2024-03-06T04:16:18;7.97;;;3.83;;
22737;SDS011;11536;50.860;4.286;2024-03-06T04:18:44;9.77;;;4.78;;
22737;SDS011;11536;50.860;4.286;2024-03-06T04:21:10;7.85;;;4.10;;
22737;SDS011;11536;50.860;4.286;2024-03-06T04:23:36;8.60;;;4.10;;
22737;SDS011;11536;50.860;4.286;2024-03-06T04:26:02;8.50;;;4.03;;
22737;SDS011;11536;50.860;4.286;2024-03-06T04:28:28;8.13;;;3.72;;
22737;SDS011;11536;50.860;4.286;2024-03-06T04:30:54;8.75;;;4.28;;
22737;SDS011;11536;50.860;4.286;2024-03-06T04:33:20;8.27;;;3.70;;
22737;SDS011;11536;50.860;4.286;2024-03-06T04:35:46;9.15;;;3.70;;
22737;SDS011;11536;50.860;4.286;2024-03-06T04:38:12;6.93;;;3.60;;
22737;SDS011;11536;50.860;4.286;2024-03-06T04:40:37;9.57;;;4.28;;
22737;SDS011;11536;50.860;4.286;2024-03-06T04:43:04;6.88;;;3.55;;
22737;SDS011;11536;50.860;4.286;2024-03-06T04:45:29;7.80;;;4.13;;
22737;SDS011;11536;50.860;4.286;2024-03-06T04:47:55;6.80;;;3.35;;
22737;SDS011;11536;50.860;4.286;2024-03-06T04:50:21;8.77;;;4.00;;
22737;SDS011;11536;50.860;4.286;2024-03-06T04:52:47;8.07;;;4.50;;
22737;SDS011;11536;50.860;4.286;2024-03-06T04:55:12;9.70;;;4.55;;
22737;SDS011;11536;50.860;4.286;2024-03-06T04:57:42;8.77;;;4.80;;
22737;SDS011;11536;50.860;4.286;2024-03-06T05:00:09;7.05;;;3.50;;
22737;SDS011;11536;50.860;4.286;2024-03-06T05:02:35;9.90;;;4.20;;
22737;SDS011;11536;50.860;4.286;2024-03-06T05:05:02;10.45;;;4.65;;
22737;SDS011;11536;50.860;4.286;2024-03-06T05:07:29;7.00;;;3.40;;
22737;SDS011;11536;50.860;4.286;2024-03-06T05:09:55;9.10;;;4.25;;
22737;SDS011;11536;50.860;4.286;2024-03-06T05:12:22;8.10;;;4.00;;
22737;SDS011;11536;50.860;4.286;2024-03-06T05:14:48;11.77;;;4.57;;
22737;SDS011;11536;50.860;4.286;2024-03-06T05:17:14;7.60;;;3.90;;
22737;SDS011;11536;50.860;4.286;2024-03-06T05:19:39;9.35;;;4.47;;
22737;SDS011;11536;50.860;4.286;2024-03-06T05:22:05;7.82;;;4.07;;
22737;SDS011;11536;50.860;4.286;2024-03-06T05:24:31;10.52;;;3.97;;
22737;SDS011;11536;50.860;4.286;2024-03-06T05:26:56;8.52;;;4.28;;
22737;SDS011;11536;50.860;4.286;2024-03-06T05:29:22;7.90;;;3.75;;
22737;SDS011;11536;50.860;4.286;2024-03-06T05:31:47;9.35;;;3.92;;
22737;SDS011;11536;50.860;4.286;2024-03-06T05:34:13;7.85;;;4.13;;
22737;SDS011;11536;50.860;4.286;2024-03-06T05:36:38;9.48;;;4.07;;
22737;SDS011;11536;50.860;4.286;2024-03-06T05:39:04;6.75;;;3.58;;
22737;SDS011;11536;50.860;4.286;2024-03-06T05:41:37;8.77;;;3.85;;
22737;SDS011;11536;50.860;4.286;2024-03-06T05:44:04;10.60;;;4.32;;
22737;SDS011;11536;50.860;4.286;2024-03-06T05:46:29;8.35;;;4.60;;
22737;SDS011;11536;50.860;4.286;2024-03-06T05:48:55;9.55;;;3.80;;
22737;SDS011;11536;50.860;4.286;2024-03-06T05:51:20;8.23;;;4.43;;
22737;SDS011;11536;50.860;4.286;2024-03-06T05:53:46;9.48;;;4.05;;
22737;SDS011;11536;50.860;4.286;2024-03-06T05:56:11;8.60;;;4.00;;
22737;SDS011;11536;50.860;4.286;2024-03-06T05:58:37;7.70;;;3.85;;
22737;SDS011;11536;50.860;4.286;2024-03-06T06:01:03;8.30;;;3.97;;
22737;SDS011;11536;50.860;4.286;2024-03-06T06:03:29;11.05;;;4.45;;
22737;SDS011;11536;50.860;4.286;2024-03-06T06:05:55;10.40;;;3.78;;
22737;SDS011;11536;50.860;4.286;2024-03-06T06:08:21;8.07;;;4.18;;
22737;SDS011;11536;50.860;4.286;2024-03-06T06:10:47;7.93;;;4.15;;
22737;SDS011;11536;50.860;4.286;2024-03-06T06:13:13;8.45;;;4.28;;
22737;SDS011;11536;50.860;4.286;2024-03-06T06:15:39;8.75;;;3.92;;
22737;SDS011;11536;50.860;4.286;2024-03-06T06:18:06;11.45;;;5.07;;
22737;SDS011;11536;50.860;4.286;2024-03-06T06:20:31;11.18;;;4.65;;
22737;SDS011;11536;50.860;4.286;2024-03-06T06:22:57;10.40;;;3.85;;
22737;SDS011;11536;50.860;4.286;2024-03-06T06:25:23;8.82;;;3.67;;
22737;SDS011;11536;50.860;4.286;2024-03-06T06:27:49;9.00;;;4.60;;
22737;SDS011;11536;50.860;4.286;2024-03-06T06:30:15;10.50;;;4.78;;
22737;SDS011;11536;50.860;4.286;2024-03-06T06:32:42;10.13;;;4.47;;
22737;SDS011;11536;50.860;4.286;2024-03-06T06:35:08;9.32;;;4.25;;
22737;SDS011;11536;50.860;4.286;2024-03-06T06:37:38;9.25;;;4.28;;
22737;SDS011;11536;50.860;4.286;2024-03-06T06:40:05;8.65;;;4.28;;
22737;SDS011;11536;50.860;4.286;2024-03-06T06:42:32;7.82;;;4.10;;
22737;SDS011;11536;50.860;4.286;2024-03-06T06:44:59;8.32;;;4.25;;
22737;SDS011;11536;50.860;4.286;2024-03-06T06:47:25;10.38;;;4.60;;
22737;SDS011;11536;50.860;4.286;2024-03-06T06:49:50;9.52;;;4.28;;
22737;SDS011;11536;50.860;4.286;2024-03-06T06:52:16;10.02;;;4.13;;
22737;SDS011;11536;50.860;4.286;2024-03-06T06:54:42;8.80;;;4.43;;
22737;SDS011;11536;50.860;4.286;2024-03-06T06:57:07;9.38;;;4.32;;
22737;SDS011;11536;50.860;4.286;2024-03-06T06:59:33;11.70;;;4.72;;
22737;SDS011;11536;50.860;4.286;2024-03-06T07:01:59;10.05;;;4.78;;
22737;SDS011;11536;50.860;4.286;2024-03-06T07:04:25;10.38;;;4.60;;
22737;SDS011;11536;50.860;4.286;2024-03-06T07:06:51;10.30;;;4.20;;
22737;SDS011;11536;50.860;4.286;2024-03-06T07:09:17;7.78;;;4.03;;
22737;SDS011;11536;50.860;4.286;2024-03-06T07:11:43;11.15;;;4.88;;
22737;SDS011;11536;50.860;4.286;2024-03-06T07:14:09;9.63;;;4.30;;
22737;SDS011;11536;50.860;4.286;2024-03-06T07:16:44;9.38;;;4.63;;
22737;SDS011;11536;50.860;4.286;2024-03-06T07:19:10;9.82;;;4.82;;
22737;SDS011;11536;50.860;4.286;2024-03-06T07:21:35;9.40;;;4.50;;
22737;SDS011;11536;50.860;4.286;2024-03-06T07:24:03;12.75;;;5.20;;
22737;SDS011;11536;50.860;4.286;2024-03-06T07:26:31;11.65;;;5.40;;
22737;SDS011;11536;50.860;4.286;2024-03-06T07:28:57;12.13;;;5.57;;
22737;SDS011;11536;50.860;4.286;2024-03-06T07:31:27;9.98;;;5.35;;
22737;SDS011;11536;50.860;4.286;2024-03-06T07:33:53;9.57;;;5.20;;
22737;SDS011;11536;50.860;4.286;2024-03-06T07:36:20;10.95;;;5.53;;
22737;SDS011;11536;50.860;4.286;2024-03-06T07:38:46;12.80;;;5.88;;
22737;SDS011;11536;50.860;4.286;2024-03-06T07:41:12;13.23;;;5.43;;
22737;SDS011;11536;50.860;4.286;2024-03-06T07:43:37;11.07;;;5.82;;
22737;SDS011;11536;50.860;4.286;2024-03-06T07:46:03;12.35;;;5.68;;
22737;SDS011;11536;50.860;4.286;2024-03-06T07:48:35;11.63;;;6.10;;
22737;SDS011;11536;50.860;4.286;2024-03-06T07:51:09;11.68;;;5.65;;
22737;SDS011;11536;50.860;4.286;2024-03-06T07:53:34;13.65;;;6.00;;
22737;SDS011;11536;50.860;4.286;2024-03-06T07:56:00;11.90;;;5.60;;
22737;SDS011;11536;50.860;4.286;2024-03-06T07:58:28;13.93;;;5.43;;
22737;SDS011;11536;50.860;4.286;2024-03-06T08:00:53;13.10;;;5.38;;
22737;SDS011;11536;50.860;4.286;2024-03-06T08:03:21;13.93;;;5.30;;
22737;SDS011;11536;50.860;4.286;2024-03-06T08:05:47;14.00;;;5.63;;
22737;SDS011;11536;50.860;4.286;2024-03-06T08:08:17;9.98;;;4.40;;
22737;SDS011;11536;50.860;4.286;2024-03-06T08:10:43;10.23;;;5.18;;
22737;SDS011;11536;50.860;4.286;2024-03-06T08:13:10;11.85;;;5.20;;
22737;SDS011;11536;50.860;4.286;2024-03-06T08:15:36;12.38;;;4.93;;
22737;SDS011;11536;50.860;4.286;2024-03-06T08:18:01;11.55;;;4.82;;
22737;SDS011;11536;50.860;4.286;2024-03-06T08:20:28;8.45;;;4.00;;
22737;SDS011;11536;50.860;4.286;2024-03-06T08:22:54;9.07;;;5.05;;
22737;SDS011;11536;50.860;4.286;2024-03-06T08:25:21;10.77;;;4.68;;
22737;SDS011;11536;50.860;4.286;2024-03-06T08:27:48;10.30;;;4.60;;
22737;SDS011;11536;50.860;4.286;2024-03-06T08:30:13;7.93;;;3.80;;
22737;SDS011;11536;50.860;4.286;2024-03-06T08:32:39;8.23;;;4.20;;
22737;SDS011;11536;50.860;4.286;2024-03-06T08:35:05;12.18;;;4.80;;
22737;SDS011;11536;50.860;4.286;2024-03-06T08:37:37;10.23;;;4.57;;
22737;SDS011;11536;50.860;4.286;2024-03-06T08:40:03;11.43;;;5.10;;
22737;SDS011;11536;50.860;4.286;2024-03-06T08:42:29;11.63;;;4.75;;
22737;SDS011;11536;50.860;4.286;2024-03-06T08:44:54;14.35;;;5.00;;
22737;SDS011;11536;50.860;4.286;2024-03-06T08:47:20;11.98;;;5.43;;
22737;SDS011;11536;50.860;4.286;2024-03-06T08:49:46;13.65;;;4.78;;
22737;SDS011;11536;50.860;4.286;2024-03-06T08:54:38;9.40;;;4.10;;
22737;SDS011;11536;50.860;4.286;2024-03-06T08:57:06;8.82;;;3.85;;
22737;SDS011;11536;50.860;4.286;2024-03-06T08:59:33;10.30;;;3.95;;
22737;SDS011;11536;50.860;4.286;2024-03-06T09:02:11;10.32;;;4.65;;
22737;SDS011;11536;50.860;4.286;2024-03-06T09:04:41;10.77;;;4.85;;
22737;SDS011;11536;50.860;4.286;2024-03-06T09:07:07;9.35;;;4.32;;
22737;SDS011;11536;50.860;4.286;2024-03-06T09:09:33;9.32;;;4.50;;
22737;SDS011;11536;50.860;4.286;2024-03-06T09:11:59;10.55;;;4.85;;
22737;SDS011;11536;50.860;4.286;2024-03-06T09:14:32;10.82;;;5.72;;
22737;SDS011;11536;50.860;4.286;2024-03-06T09:16:58;12.50;;;4.60;;
22737;SDS011;11536;50.860;4.286;2024-03-06T09:19:24;9.23;;;4.85;;
22737;SDS011;11536;50.860;4.286;2024-03-06T09:21:49;10.25;;;4.65;;
22737;SDS011;11536;50.860;4.286;2024-03-06T09:24:15;9.70;;;4.55;;
22737;SDS011;11536;50.860;4.286;2024-03-06T09:26:40;10.50;;;4.43;;
22737;SDS011;11536;50.860;4.286;2024-03-06T09:29:06;10.07;;;4.30;;
22737;SDS011;11536;50.860;4.286;2024-03-06T09:31:32;9.75;;;4.53;;
22737;SDS011;11536;50.860;4.286;2024-03-06T09:33:57;9.00;;;4.32;;
22737;SDS011;11536;50.860;4.286;2024-03-06T09:36:23;12.73;;;5.22;;
22737;SDS011;11536;50.860;4.286;2024-03-06T09:38:49;8.32;;;3.80;;
22737;SDS011;11536;50.860;4.286;2024-03-06T09:41:14;8.45;;;4.80;;
22737;SDS011;11536;50.860;4.286;2024-03-06T09:43:40;9.45;;;4.40;;
22737;SDS011;11536;50.860;4.286;2024-03-06T09:46:08;10.95;;;4.90;;
22737;SDS011;11536;50.860;4.286;2024-03-06T09:48:34;9.82;;;4.38;;
22737;SDS011;11536;50.860;4.286;2024-03-06T09:51:01;10.57;;;4.68;;
22737;SDS011;11536;50.860;4.286;2024-03-06T09:53:27;10.10;;;4.38;;
22737;SDS011;11536;50.860;4.286;2024-03-06T09:55:53;12.35;;;4.60;;
22737;SDS011;11536;50.860;4.286;2024-03-06T09:58:21;9.95;;;4.43;;
22737;SDS011;11536;50.860;4.286;2024-03-06T10:00:47;11.55;;;4.57;;
22737;SDS011;11536;50.860;4.286;2024-03-06T10:03:14;9.30;;;3.80;;
22737;SDS011;11536;50.860;4.286;2024-03-06T10:05:40;8.77;;;4.28;;
22737;SDS011;11536;50.860;4.286;2024-03-06T10:08:08;8.32;;;4.05;;
22737;SDS011;11536;50.860;4.286;2024-03-06T10:10:34;9.13;;;4.32;;
22737;SDS011;11536;50.860;4.286;2024-03-06T10:13:01;9.80;;;4.22;;
22737;SDS011;11536;50.860;4.286;2024-03-06T10:15:27;9.45;;;4.00;;
22737;SDS011;11536;50.860;4.286;2024-03-06T10:20:43;9.85;;;3.47;;
22737;SDS011;11536;50.860;4.286;2024-03-06T10:23:09;8.48;;;3.60;;
22737;SDS011;11536;50.860;4.286;2024-03-06T10:25:34;8.30;;;3.65;;
22737;SDS011;11536;50.860;4.286;2024-03-06T10:28:04;8.18;;;3.80;;
22737;SDS011;11536;50.860;4.286;2024-03-06T10:30:32;7.07;;;3.38;;
22737;SDS011;11536;50.860;4.286;2024-03-06T10:33:00;6.72;;;2.97;;
22737;SDS011;11536;50.860;4.286;2024-03-06T10:35:30;5.80;;;2.67;;
22737;SDS011;11536;50.860;4.286;2024-03-06T10:37:56;7.55;;;2.78;;
22737;SDS011;11536;50.860;4.286;2024-03-06T10:40:27;7.05;;;2.80;;
22737;SDS011;11536;50.860;4.286;2024-03-06T10:42:56;8.48;;;3.08;;
22737;SDS011;11536;50.860;4.286;2024-03-06T10:45:23;7.97;;;3.50;;
22737;SDS011;11536;50.860;4.286;2024-03-06T10:48:14;6.28;;;2.22;;
22737;SDS011;11536;50.860;4.286;2024-03-06T10:50:41;6.72;;;2.80;;
22737;SDS011;11536;50.860;4.286;2024-03-06T10:53:09;7.47;;;2.83;;
22737;SDS011;11536;50.860;4.286;2024-03-06T10:55:39;8.80;;;3.00;;
22737;SDS011;11536;50.860;4.286;2024-03-06T10:58:06;7.45;;;3.03;;
22737;SDS011;11536;50.860;4.286;2024-03-06T11:00:44;6.95;;;2.35;;
22737;SDS011;11536;50.860;4.286;2024-03-06T11:03:14;8.43;;;2.92;;
22737;SDS011;11536;50.860;4.286;2024-03-06T11:05:41;6.03;;;3.08;;
22737;SDS011;11536;50.860;4.286;2024-03-06T11:08:07;6.82;;;2.72;;
22737;SDS011;11536;50.860;4.286;2024-03-06T11:10:35;9.40;;;3.10;;
22737;SDS011;11536;50.860;4.286;2024-03-06T11:13:03;7.82;;;3.25;;
22737;SDS011;11536;50.860;4.286;2024-03-06T11:15:33;5.35;;;2.38;;
22737;SDS011;11536;50.860;4.286;2024-03-06T11:18:20;5.60;;;2.97;;
22737;SDS011;11536;50.860;4.286;2024-03-06T11:24:11;9.80;;;3.83;;
22737;SDS011;11536;50.860;4.286;2024-03-06T11:26:47;6.68;;;2.75;;
22737;SDS011;11536;50.860;4.286;2024-03-06T11:29:22;8.93;;;2.92;;
22737;SDS011;11536;50.860;4.286;2024-03-06T11:32:00;6.10;;;3.10;;
22737;SDS011;11536;50.860;4.286;2024-03-06T11:34:28;5.85;;;2.65;;
22737;SDS011;11536;50.860;4.286;2024-03-06T11:36:58;7.63;;;3.00;;
22737;SDS011;11536;50.860;4.286;2024-03-06T11:39:27;9.40;;;3.20;;
22737;SDS011;11536;50.860;4.286;2024-03-06T11:41:54;7.88;;;3.20;;
22737;SDS011;11536;50.860;4.286;2024-03-06T11:44:20;8.57;;;2.95;;
22737;SDS011;11536;50.860;4.286;2024-03-06T11:46:48;5.50;;;2.28;;
22737;SDS011;11536;50.860;4.286;2024-03-06T11:49:24;6.75;;;2.63;;
22737;SDS011;11536;50.860;4.286;2024-03-06T11:51:51;6.65;;;2.58;;
22737;SDS011;11536;50.860;4.286;2024-03-06T11:54:17;5.78;;;2.35;;
22737;SDS011;11536;50.860;4.286;2024-03-06T11:56:48;6.07;;;2.42;;
22737;SDS011;11536;50.860;4.286;2024-03-06T11:59:20;7.88;;;2.63;;
22737;SDS011;11536;50.860;4.286;2024-03-06T12:01:47;6.10;;;2.60;;
22737;SDS011;11536;50.860;4.286;2024-03-06T12:04:13;6.38;;;2.75;;
22737;SDS011;11536;50.860;4.286;2024-03-06T12:06:39;6.25;;;2.95;;
22737;SDS011;11536;50.860;4.286;2024-03-06T12:09:04;5.65;;;2.35;;
22737;SDS011;11536;50.860;4.286;2024-03-06T12:11:30;6.57;;;2.35;;
22737;SDS011;11536;50.860;4.286;2024-03-06T12:13:56;5.78;;;2.63;;
22737;SDS011;11536;50.860;4.286;2024-03-06T12:16:21;7.70;;;2.63;;
22737;SDS011;11536;50.860;4.286;2024-03-06T12:18:54;8.60;;;2.50;;
22737;SDS011;11536;50.860;4.286;2024-03-06T12:21:22;7.38;;;2.40;;
22737;SDS011;11536;50.860;4.286;2024-03-06T12:24:09;5.88;;;2.30;;
22737;SDS011;11536;50.860;4.286;2024-03-06T12:26:36;6.47;;;2.28;;
22737;SDS011;11536;50.860;4.286;2024-03-06T12:29:09;4.82;;;1.92;;
22737;SDS011;11536;50.860;4.286;2024-03-06T12:31:36;6.38;;;2.53;;
22737;SDS011;11536;50.860;4.286;2024-03-06T12:34:03;7.63;;;2.40;;
22737;SDS011;11536;50.860;4.286;2024-03-06T12:36:30;8.02;;;2.58;;
22737;SDS011;11536;50.860;4.286;2024-03-06T12:38:57;7.30;;;2.42;;
22737;SDS011;11536;50.860;4.286;2024-03-06T12:41:25;6.25;;;2.00;;
22737;SDS011;11536;50.860;4.286;2024-03-06T12:43:54;5.22;;;2.13;;
22737;SDS011;11536;50.860;4.286;2024-03-06T12:46:21;6.57;;;2.15;;
22737;SDS011;11536;50.860;4.286;2024-03-06T12:48:51;5.05;;;1.90;;
22737;SDS011;11536;50.860;4.286;2024-03-06T12:51:17;3.42;;;1.40;;
22737;SDS011;11536;50.860;4.286;2024-03-06T12:53:42;6.47;;;2.33;;
22737;SDS011;11536;50.860;4.286;2024-03-06T12:56:08;7.57;;;2.08;;
22737;SDS011;11536;50.860;4.286;2024-03-06T12:58:34;4.80;;;1.90;;
22737;SDS011;11536;50.860;4.286;2024-03-06T13:01:00;4.25;;;1.73;;
22737;SDS011;11536;50.860;4.286;2024-03-06T13:03:26;4.47;;;1.77;;
22737;SDS011;11536;50.860;4.286;2024-03-06T13:05:52;4.15;;;1.73;;
22737;SDS011;11536;50.860;4.286;2024-03-06T13:08:18;5.40;;;1.95;;
22737;SDS011;11536;50.860;4.286;2024-03-06T13:10:44;5.07;;;1.95;;
22737;SDS011;11536;50.860;4.286;2024-03-06T13:13:12;6.13;;;1.63;;
22737;SDS011;11536;50.860;4.286;2024-03-06T13:15:38;3.88;;;1.48;;
22737;SDS011;11536;50.860;4.286;2024-03-06T13:18:04;3.20;;;1.08;;
22737;SDS011;11536;50.860;4.286;2024-03-06T13:20:30;5.03;;;1.60;;
22737;SDS011;11536;50.860;4.286;2024-03-06T13:22:55;5.55;;;1.65;;
22737;SDS011;11536;50.860;4.286;2024-03-06T13:25:21;6.20;;;1.60;;
22737;SDS011;11536;50.860;4.286;2024-03-06T13:27:47;4.75;;;1.88;;
22737;SDS011;11536;50.860;4.286;2024-03-06T13:30:13;5.00;;;1.83;;
22737;SDS011;11536;50.860;4.286;2024-03-06T13:32:39;6.00;;;2.35;;
22737;SDS011;11536;50.860;4.286;2024-03-06T13:35:05;5.97;;;2.30;;
22737;SDS011;11536;50.860;4.286;2024-03-06T13:37:31;4.78;;;1.90;;
22737;SDS011;11536;50.860;4.286;2024-03-06T13:39:59;7.50;;;2.22;;
22737;SDS011;11536;50.860;4.286;2024-03-06T13:42:26;7.68;;;2.35;;
22737;SDS011;11536;50.860;4.286;2024-03-06T13:44:52;9.63;;;2.47;;
22737;SDS011;11536;50.860;4.286;2024-03-06T13:47:19;6.38;;;2.40;;
22737;SDS011;11536;50.860;4.286;2024-03-06T13:49:44;6.88;;;2.08;;
22737;SDS011;11536;50.860;4.286;2024-03-06T13:52:10;8.18;;;2.70;;
22737;SDS011;11536;50.860;4.286;2024-03-06T13:54:39;6.00;;;2.17;;
22737;SDS011;11536;50.860;4.286;2024-03-06T13:57:08;4.57;;;1.98;;
22737;SDS011;11536;50.860;4.286;2024-03-06T13:59:34;9.73;;;2.13;;
22737;SDS011;11536;50.860;4.286;2024-03-06T14:02:02;4.13;;;1.90;;
22737;SDS011;11536;50.860;4.286;2024-03-06T14:04:28;5.75;;;2.30;;
22737;SDS011;11536;50.860;4.286;2024-03-06T14:06:55;8.48;;;2.40;;
22737;SDS011;11536;50.860;4.286;2024-03-06T14:09:22;8.80;;;2.08;;
22737;SDS011;11536;50.860;4.286;2024-03-06T14:11:49;5.30;;;2.10;;
22737;SDS011;11536;50.860;4.286;2024-03-06T14:14:15;5.00;;;1.90;;
22737;SDS011;11536;50.860;4.286;2024-03-06T14:16:41;5.30;;;2.08;;
22737;SDS011;11536;50.860;4.286;2024-03-06T14:19:07;6.97;;;2.30;;
22737;SDS011;11536;50.860;4.286;2024-03-06T14:21:33;7.22;;;2.30;;
22737;SDS011;11536;50.860;4.286;2024-03-06T14:24:00;5.13;;;1.60;;
22737;SDS011;11536;50.860;4.286;2024-03-06T14:26:30;4.40;;;1.90;;
22737;SDS011;11536;50.860;4.286;2024-03-06T14:28:57;6.65;;;2.10;;
22737;SDS011;11536;50.860;4.286;2024-03-06T14:31:27;6.95;;;2.03;;
22737;SDS011;11536;50.860;4.286;2024-03-06T14:33:55;5.07;;;2.13;;
22737;SDS011;11536;50.860;4.286;2024-03-06T14:36:21;5.50;;;1.85;;
22737;SDS011;11536;50.860;4.286;2024-03-06T14:38:47;5.10;;;1.80;;
22737;SDS011;11536;50.860;4.286;2024-03-06T14:41:13;6.60;;;2.38;;
22737;SDS011;11536;50.860;4.286;2024-03-06T14:43:39;6.78;;;2.78;;
22737;SDS011;11536;50.860;4.286;2024-03-06T14:46:08;6.78;;;2.63;;
22737;SDS011;11536;50.860;4.286;2024-03-06T14:48:34;6.07;;;2.20;;
22737;SDS011;11536;50.860;4.286;2024-03-06T14:51:00;6.82;;;2.70;;
22737;SDS011;11536;50.860;4.286;2024-03-06T14:53:26;6.75;;;2.80;;
22737;SDS011;11536;50.860;4.286;2024-03-06T14:55:51;5.95;;;2.65;;